Time;durP1;ratioP1;P1;durP2;ratioP2;P2;SDS_P1;SDS_P2;PMS_P1;PMS_P2;Temp;Humidity;BMP_temperature;BMP_pressure;BME280_temperature;BME280_humidity;BME280_pressure;Samples;Min_cycle;Max_cycle;Signal;HPM_P1;HPM_P2
2022/10/21 00:00:13;;;;;;;2.35;1.40;;;;;;;2.12;94.67;100263.36;1764861;81;21040;-72
2022/10/21 00:02:42;;;;;;;2.80;1.57;;;;;;;2.05;94.90;100255.62;1764805;81;20965;-72
2022/10/21 00:05:10;;;;;;;2.87;1.30;;;;;;;2.00;95.04;100257.29;1765214;80;21009;-72
2022/10/21 00:11:09;;;;;;;1.85;1.40;;;;;;;1.87;95.46;100259.36;1765075;81;21001;-72
2022/10/21 00:13:38;;;;;;;2.85;1.67;;;;;;;1.79;95.76;100262.74;1764881;81;20956;-72
2022/10/21 00:16:14;;;;;;;2.33;1.67;;;;;;;1.72;96.22;100269.53;1764748;81;20969;-73
2022/10/21 00:18:43;;;;;;;2.40;1.32;;;;;;;1.70;96.43;100265.67;1764838;81;20925;-73
2022/10/21 00:21:13;;;;;;;2.00;1.72;;;;;;;1.68;96.65;100261.37;1764788;81;21097;-72
2022/10/21 00:23:40;;;;;;;2.90;1.92;;;;;;;1.64;96.92;100263.05;1764724;81;21465;-72
2022/10/21 00:26:06;;;;;;;3.70;2.55;;;;;;;1.63;97.25;100253.64;1765100;81;21448;-73
2022/10/21 00:28:35;;;;;;;4.25;2.60;;;;;;;1.63;97.57;100254.92;1764892;80;20985;-73
2022/10/21 00:31:03;;;;;;;3.92;2.20;;;;;;;1.62;97.62;100251.06;1764808;81;21047;-73
2022/10/21 00:33:30;;;;;;;2.67;2.02;;;;;;;1.61;97.73;100253.19;1743362;81;21161;-73
2022/10/21 00:36:01;;;;;;;3.50;2.42;;;;;;;1.58;97.84;100248.06;1764781;81;21028;-73
2022/10/21 00:38:31;;;;;;;3.85;2.35;;;;;;;1.56;97.88;100242.06;1765101;80;21444;-73
2022/10/21 00:40:57;;;;;;;3.98;2.55;;;;;;;1.52;97.84;100239.04;1763050;81;20996;-73
2022/10/21 00:43:25;;;;;;;4.03;2.37;;;;;;;1.49;97.98;100245.00;1762364;81;21441;-73
2022/10/21 00:46:01;;;;;;;4.03;2.33;;;;;;;1.44;98.00;100236.41;1762403;81;21685;-73
2022/10/21 00:48:35;;;;;;;3.00;2.10;;;;;;;1.40;98.06;100236.40;1762300;81;20989;-73
2022/10/21 00:51:06;;;;;;;5.37;3.00;;;;;;;1.35;98.16;100232.52;1762797;81;21004;-73
2022/10/21 00:53:34;;;;;;;3.95;2.67;;;;;;;1.30;98.31;100230.33;1762440;81;20953;-73
2022/10/21 00:56:06;;;;;;;4.40;2.50;;;;;;;1.25;98.35;100241.81;1762596;81;21055;-73
2022/10/21 00:58:32;;;;;;;3.70;2.77;;;;;;;1.20;98.60;100245.20;1762327;81;21130;-73
2022/10/21 01:01:00;;;;;;;5.90;2.75;;;;;;;1.16;98.64;100248.16;1762356;81;20948;-73
2022/10/21 01:03:28;;;;;;;4.97;2.25;;;;;;;1.13;98.62;100246.84;1716751;81;21027;-73
2022/10/21 01:05:56;;;;;;;4.22;2.20;;;;;;;1.10;98.73;100252.36;1762425;81;20952;-73
2022/10/21 01:08:24;;;;;;;4.78;2.35;;;;;;;1.06;98.80;100251.89;1762359;81;20949;-73
2022/10/21 01:10:51;;;;;;;3.80;2.35;;;;;;;1.03;99.16;100248.88;1762393;81;21140;-73
2022/10/21 01:13:56;;;;;;;2.67;2.02;;;;;;;1.00;99.40;100247.13;1762238;81;21017;-72
2022/10/21 01:17:03;;;;;;;4.55;1.92;;;;;;;0.96;99.38;100249.26;1762339;81;20945;-72
2022/10/21 01:19:48;;;;;;;5.30;2.15;;;;;;;0.94;99.35;100248.80;1762529;81;21027;-72
2022/10/21 01:22:37;;;;;;;5.92;2.80;;;;;;;0.89;99.40;100255.16;1762496;81;20980;-72
2022/10/21 01:25:12;;;;;;;4.47;2.40;;;;;;;0.86;99.64;100257.67;1762456;81;21157;-72
2022/10/21 01:27:53;;;;;;;4.53;2.65;;;;;;;0.83;99.74;100255.08;1762240;81;21052;-72
2022/10/21 01:30:41;;;;;;;4.80;2.37;;;;;;;0.80;99.91;100256.78;1762340;81;20997;-72
2022/10/21 01:33:16;;;;;;;4.50;2.05;;;;;;;0.78;100.00;100261.02;1762594;81;21064;-72
2022/10/21 01:36:04;;;;;;;3.58;2.27;;;;;;;0.73;100.00;100252.42;1759158;81;20984;-72
2022/10/21 01:38:54;;;;;;;5.25;2.40;;;;;;;0.71;100.00;100260.08;1762345;81;21160;-72
2022/10/21 01:41:26;;;;;;;4.90;2.27;;;;;;;0.67;100.00;100264.31;1767894;80;21047;-72
2022/10/21 01:44:01;;;;;;;3.15;2.25;;;;;;;0.63;100.00;100274.06;1782371;80;21396;-73
2022/10/21 01:46:34;;;;;;;3.72;2.12;;;;;;;0.60;100.00;100274.48;1781980;80;21051;-73
2022/10/21 01:49:32;;;;;;;4.03;2.45;;;;;;;0.59;100.00;100275.32;1779310;80;20999;-73
2022/10/21 01:51:59;;;;;;;3.80;1.92;;;;;;;0.56;100.00;100276.14;1782091;80;21164;-72
2022/10/21 01:54:42;;;;;;;3.27;2.10;;;;;;;0.53;100.00;100286.34;1781944;80;21023;-72
2022/10/21 01:57:09;;;;;;;3.12;1.77;;;;;;;0.49;100.00;100293.53;1762370;80;20975;-73
2022/10/21 01:59:38;;;;;;;3.37;2.33;;;;;;;0.47;100.00;100296.49;1781962;80;20955;-73
2022/10/21 02:02:07;;;;;;;3.15;2.30;;;;;;;0.48;100.00;100297.35;1782193;80;20991;-73
2022/10/21 02:04:36;;;;;;;2.33;1.70;;;;;;;0.48;100.00;100305.03;1782573;80;21100;-73
2022/10/21 02:07:03;;;;;;;3.40;2.10;;;;;;;0.43;100.00;100303.69;1781926;80;20920;-73
2022/10/21 02:09:30;;;;;;;3.90;2.45;;;;;;;0.41;100.00;100305.78;1782026;80;20983;-73
2022/10/21 02:12:00;;;;;;;3.45;2.30;;;;;;;0.37;100.00;100299.80;1782053;80;21043;-73
2022/10/21 02:14:36;;;;;;;1.92;1.70;;;;;;;0.36;100.00;100294.66;1782507;80;20956;-73
2022/10/21 02:17:02;;;;;;;3.00;1.98;;;;;;;0.39;100.00;100293.41;1782095;80;21175;-73
2022/10/21 02:19:30;;;;;;;4.80;2.22;;;;;;;0.40;100.00;100295.14;1782022;80;21039;-73
2022/10/21 02:21:59;;;;;;;3.47;2.27;;;;;;;0.37;100.00;100294.67;1782107;80;21059;-73
2022/10/21 02:24:55;;;;;;;2.85;2.02;;;;;;;0.34;100.00;100298.47;1782185;80;20995;-73
2022/10/21 02:27:21;;;;;;;3.55;2.27;;;;;;;0.33;100.00;100302.72;1762352;80;20999;-73
2022/10/21 02:29:50;;;;;;;3.65;2.58;;;;;;;0.30;100.00;100304.38;1782198;80;21128;-73
2022/10/21 02:32:35;;;;;;;3.40;2.08;;;;;;;0.25;100.00;100300.89;1782108;80;21411;-73
2022/10/21 02:35:20;;;;;;;4.40;2.00;;;;;;;0.22;100.00;100308.52;1782102;80;21048;-73
2022/10/21 02:38:00;;;;;;;4.05;2.58;;;;;;;0.18;100.00;100310.63;1782224;80;21424;-73
2022/10/21 02:40:41;;;;;;;5.33;2.77;;;;;;;0.13;100.00;100314.39;1777474;80;21424;-72
2022/10/21 02:43:36;;;;;;;4.55;2.20;;;;;;;0.09;100.00;100313.90;1765198;80;22002;-73
2022/10/21 02:46:11;;;;;;;4.30;2.60;;;;;;;0.05;100.00;100306.16;1764865;81;20937;-73
2022/10/21 02:48:38;;;;;;;3.72;2.50;;;;;;;0.04;100.00;100309.55;1765072;81;21024;-73
2022/10/21 02:51:06;;;;;;;4.80;2.70;;;;;;;0.03;100.00;100314.22;1764803;81;20953;-73
2022/10/21 02:53:33;;;;;;;4.12;2.12;;;;;;;0.02;100.00;100324.01;1764873;80;20964;-73
2022/10/21 02:55:59;;;;;;;3.65;2.20;;;;;;;0.00;100.00;100313.34;1764883;81;21857;-73
2022/10/21 02:58:27;;;;;;;12.75;2.77;;;;;;;-0.01;100.00;100312.92;1764870;81;21449;-74
2022/10/21 03:00:54;;;;;;;2.55;2.05;;;;;;;0.02;100.00;100307.38;1765014;81;20936;-74
2022/10/21 03:03:20;;;;;;;6.00;2.90;;;;;;;0.01;100.00;100307.80;1764936;81;21060;-74
2022/10/21 03:05:47;;;;;;;6.80;3.58;;;;;;;0.01;100.00;100306.52;1764842;81;21024;-74
2022/10/21 03:08:15;;;;;;;5.35;3.25;;;;;;;0.02;100.00;100315.05;1764846;81;21165;-74
2022/10/21 03:10:42;;;;;;;5.67;3.83;;;;;;;-0.02;100.00;100317.59;1764870;81;20993;-74
2022/10/21 03:13:08;;;;;;;6.25;3.30;;;;;;;-0.02;100.00;100323.13;1765131;81;21005;-74
2022/10/21 03:15:35;;;;;;;6.83;3.50;;;;;;;-0.06;100.00;100313.69;1764896;81;21012;-74
2022/10/21 03:18:02;;;;;;;6.28;3.15;;;;;;;-0.08;100.00;100320.47;1764908;80;21009;-74
2022/10/21 03:20:30;;;;;;;7.40;3.72;;;;;;;-0.10;100.00;100310.64;1764896;81;21611;-74
2022/10/21 03:22:57;;;;;;;7.45;4.00;;;;;;;-0.12;100.00;100313.59;1764794;81;20953;-74
2022/10/21 03:25:23;;;;;;;6.80;3.52;;;;;;;-0.15;100.00;100301.61;1764820;81;20992;-74
2022/10/21 03:27:52;;;;;;;6.28;3.75;;;;;;;-0.15;100.00;100302.89;1764906;81;20984;-74
2022/10/21 03:30:19;;;;;;;7.37;3.30;;;;;;;-0.16;100.00;100311.39;1764915;81;21008;-74
2022/10/21 03:32:46;;;;;;;6.17;3.10;;;;;;;-0.17;100.00;100310.09;1764778;80;21518;-74
2022/10/21 03:35:14;;;;;;;4.45;2.65;;;;;;;-0.20;100.00;100313.45;1764717;81;20929;-74
2022/10/21 03:37:41;;;;;;;7.22;2.92;;;;;;;-0.21;100.00;100318.58;1764906;81;21032;-74
2022/10/21 03:40:08;;;;;;;4.62;2.45;;;;;;;-0.23;100.00;100314.72;1764706;80;21027;-74
2022/10/21 03:42:35;;;;;;;3.45;2.15;;;;;;;-0.27;100.00;100324.45;1762615;80;20980;-74
2022/10/21 03:45:01;;;;;;;4.75;2.35;;;;;;;-0.32;100.00;100320.09;1762356;81;21758;-74
2022/10/21 03:47:28;;;;;;;2.87;2.05;;;;;;;-0.36;100.00;100316.62;1762292;81;21600;-74
2022/10/21 03:49:55;;;;;;;5.20;2.12;;;;;;;-0.35;100.00;100320.89;1762371;80;21425;-74
2022/10/21 03:52:21;;;;;;;6.15;3.58;;;;;;;-0.36;100.00;100326.84;1762458;81;20989;-74
2022/10/21 03:54:49;;;;;;;6.28;3.58;;;;;;;-0.37;100.00;100328.95;1762456;81;21447;-74
2022/10/21 03:57:16;;;;;;;7.45;3.47;;;;;;;-0.37;100.00;100322.56;1762426;81;21086;-74
2022/10/21 03:59:42;;;;;;;4.65;2.95;;;;;;;-0.38;100.00;100318.28;1762232;81;20945;-74
2022/10/21 04:02:09;;;;;;;5.42;2.87;;;;;;;-0.39;100.00;100311.45;1762433;81;21040;-74
2022/10/21 04:04:37;;;;;;;6.50;2.95;;;;;;;-0.39;100.00;100299.53;1762337;81;21016;-73
2022/10/21 04:07:04;;;;;;;4.30;2.60;;;;;;;-0.39;100.00;100310.17;1762418;81;21000;-74
2022/10/21 04:09:31;;;;;;;4.15;2.77;;;;;;;-0.41;100.00;100310.59;1762423;81;21602;-74
2022/10/21 04:11:59;;;;;;;5.20;3.02;;;;;;;-0.44;100.00;100302.46;1762273;81;21001;-73
2022/10/21 04:14:26;;;;;;;3.42;2.37;;;;;;;-0.47;100.00;100296.02;1762328;81;20956;-73
2022/10/21 04:16:52;;;;;;;3.65;2.00;;;;;;;-0.48;100.00;100293.44;1762358;81;20960;-74
2022/10/21 04:19:19;;;;;;;3.40;2.27;;;;;;;-0.48;100.00;100295.57;1762441;81;20993;-73
2022/10/21 04:21:46;;;;;;;7.53;2.40;;;;;;;-0.50;100.00;100287.02;1762250;81;21562;-73
2022/10/21 04:24:13;;;;;;;3.35;2.33;;;;;;;-0.51;100.00;100281.88;1762313;81;20952;-73
2022/10/21 04:26:41;;;;;;;9.98;2.30;;;;;;;-0.53;100.00;100289.52;1762338;80;20977;-74
2022/10/21 04:29:07;;;;;;;4.47;3.12;;;;;;;-0.54;100.00;100300.99;1762423;80;21011;-73
2022/10/21 04:31:34;;;;;;;8.90;3.75;;;;;;;-0.56;100.00;100297.55;1762398;81;20956;-73
2022/10/21 04:34:01;;;;;;;7.40;3.83;;;;;;;-0.56;100.00;100297.55;1762539;80;21220;-73
2022/10/21 04:36:27;;;;;;;5.78;3.65;;;;;;;-0.56;100.00;100302.66;1762175;80;21090;-74
2022/10/21 04:38:54;;;;;;;5.22;3.70;;;;;;;-0.59;100.00;100321.77;1762331;80;20949;-73
2022/10/21 04:41:21;;;;;;;6.67;4.55;;;;;;;-0.62;100.00;100320.46;1762196;80;21000;-73
2022/10/21 04:43:47;;;;;;;9.48;7.87;;;;;;;-0.62;100.00;100321.33;1762322;80;21527;-73
2022/10/21 04:46:15;;;;;;;13.85;10.20;;;;;;;-0.60;100.00;100327.73;1762316;80;21969;-73
2022/10/21 04:48:43;;;;;;;12.90;8.33;;;;;;;-0.58;100.00;100320.93;1762320;81;21028;-74
2022/10/21 04:51:09;;;;;;;14.87;9.45;;;;;;;-0.57;100.00;100323.52;1762311;81;21460;-73
2022/10/21 04:53:35;;;;;;;15.30;8.78;;;;;;;-0.57;100.00;100323.52;1762311;81;21444;-73
2022/10/21 04:56:03;;;;;;;15.72;9.95;;;;;;;-0.58;100.00;100319.66;1762104;81;20992;-73
2022/10/21 04:58:29;;;;;;;14.58;9.28;;;;;;;-0.59;100.00;100322.63;1760859;80;21492;-73
2022/10/21 05:00:55;;;;;;;9.98;7.30;;;;;;;-0.58;100.00;100327.32;1761657;81;20977;-73
2022/10/21 05:03:23;;;;;;;17.87;9.03;;;;;;;-0.58;100.00;100328.59;1762256;80;20992;-74
2022/10/21 05:05:51;;;;;;;21.02;11.03;;;;;;;-0.58;100.00;100334.98;1762311;81;20996;-74
2022/10/21 05:08:19;;;;;;;16.85;9.70;;;;;;;-0.57;100.00;100330.32;1766440;80;21519;-74
2022/10/21 05:10:45;;;;;;;17.30;9.23;;;;;;;-0.52;100.00;100331.27;1791499;80;21222;-74
2022/10/21 05:13:12;;;;;;;19.77;10.48;;;;;;;-0.49;100.00;100321.10;1793675;78;20985;-74
2022/10/21 05:15:38;;;;;;;40.03;32.98;;;;;;;-0.43;100.00;100317.38;1793658;80;21008;-74
2022/10/21 05:18:08;;;;;;;30.35;16.97;;;;;;;-0.39;100.00;100314.87;1793645;80;20957;-74
2022/10/21 05:20:37;;;;;;;32.33;18.57;;;;;;;-0.35;100.00;100319.62;1786158;80;21068;-74
2022/10/21 05:23:05;;;;;;;33.80;16.80;;;;;;;-0.30;100.00;100323.53;1763484;80;21164;-74
2022/10/21 05:25:37;;;;;;;14.78;9.28;;;;;;;-0.25;100.00;100329.17;1762704;80;21079;-74
2022/10/21 05:28:07;;;;;;;11.97;8.08;;;;;;;-0.20;100.00;100336.47;1716004;83;21012;-73
2022/10/21 05:30:34;;;;;;;13.05;8.23;;;;;;;-0.14;100.00;100336.98;1715956;81;20968;-75
2022/10/21 05:33:03;;;;;;;18.35;10.32;;;;;;;-0.09;100.00;100338.79;1716002;81;21012;-75
2022/10/21 05:35:31;;;;;;;21.50;11.38;;;;;;;-0.02;100.00;100346.14;1715967;82;21231;-75
2022/10/21 05:38:00;;;;;;;28.77;13.78;;;;;;;0.05;100.00;100338.13;1715895;83;21520;-75
2022/10/21 05:40:27;;;;;;;23.70;13.58;;;;;;;0.12;100.00;100339.53;1716000;81;21461;-74
2022/10/21 05:43:00;;;;;;;23.83;14.60;;;;;;;0.19;100.00;100333.67;1715937;82;20977;-74
2022/10/21 05:45:29;;;;;;;36.00;15.48;;;;;;;0.25;100.00;100331.59;1746574;82;21039;-73
2022/10/21 05:47:59;;;;;;;20.27;13.20;;;;;;;0.34;100.00;100322.36;1756963;80;21240;-72
2022/10/21 05:50:25;;;;;;;21.12;11.93;;;;;;;0.44;100.00;100339.09;1777347;79;21086;-71
2022/10/21 05:52:52;;;;;;;15.85;9.63;;;;;;;0.51;100.00;100323.84;1777512;79;21078;-73
2022/10/21 05:55:20;;;;;;;14.03;8.13;;;;;;;0.58;100.00;100315.42;1713276;82;21504;-71
2022/10/21 05:57:47;;;;;;;15.15;8.38;;;;;;;0.66;100.00;100321.47;1757710;80;21000;-72
2022/10/21 06:00:18;;;;;;;11.28;7.25;;;;;;;0.75;100.00;100312.19;1777059;80;21143;-71
2022/10/21 06:02:47;;;;;;;17.30;7.42;;;;;;;0.82;100.00;100308.84;1757779;80;21098;-74
2022/10/21 06:05:18;;;;;;;10.58;6.35;;;;;;;0.90;100.00;100307.23;1769730;79;21039;-72
2022/10/21 06:07:49;;;;;;;8.53;6.15;;;;;;;0.99;100.00;100309.48;1775479;79;21536;-72
2022/10/21 06:10:26;;;;;;;11.05;5.75;;;;;;;1.09;100.00;100308.28;1774743;80;21129;-73
2022/10/21 06:13:00;;;;;;;8.90;6.15;;;;;;;1.17;100.00;100313.08;1772918;80;21826;-71
2022/10/21 06:15:29;;;;;;;9.65;6.33;;;;;;;1.25;100.00;100313.56;1747929;80;21055;-71
2022/10/21 06:17:56;;;;;;;10.13;7.28;;;;;;;1.30;100.00;100314.48;1744492;80;21039;-71
2022/10/21 06:20:25;;;;;;;15.13;7.42;;;;;;;1.37;100.00;100320.53;1760221;79;21004;-72
2022/10/21 06:22:51;;;;;;;13.48;7.70;;;;;;;1.45;100.00;100317.59;1782045;78;20995;-72
2022/10/21 06:25:20;;;;;;;14.00;8.05;;;;;;;1.53;100.00;100321.52;1778373;80;21310;-72
2022/10/21 06:27:47;;;;;;;9.73;6.70;;;;;;;1.61;100.00;100320.71;1777720;80;21004;-71
2022/10/21 06:30:14;;;;;;;12.65;7.10;;;;;;;1.71;100.00;100321.66;1778358;80;21035;-72
2022/10/21 06:32:41;;;;;;;16.12;7.47;;;;;;;1.82;100.00;100325.16;1768836;80;21083;-70
2022/10/21 06:35:08;;;;;;;16.60;8.28;;;;;;;1.89;100.00;100330.78;1757138;79;21457;-72
2022/10/21 06:37:39;;;;;;;17.17;9.20;;;;;;;1.98;100.00;100338.97;1778375;80;21139;-71
2022/10/21 06:40:13;;;;;;;;;;;;;;;2.07;100.00;100342.44;1780703;79;21023;-72
2022/10/21 06:42:49;;;;;;;10.63;6.83;;;;;;;2.19;100.00;100344.67;1784016;80;20424;-72
2022/10/21 06:45:24;;;;;;;11.35;8.05;;;;;;;2.26;100.00;100349.83;1775354;78;21012;-73
2022/10/21 06:47:53;;;;;;;12.78;7.03;;;;;;;2.33;100.00;100355.45;1718012;82;21144;-72
2022/10/21 06:50:21;;;;;;;8.90;5.05;;;;;;;2.41;100.00;100353.77;1775449;78;21526;-72
2022/10/21 06:52:50;;;;;;;6.75;4.55;;;;;;;2.49;100.00;100358.95;1766148;80;21016;-71
2022/10/21 06:55:20;;;;;;;6.55;4.72;;;;;;;2.57;100.00;100361.58;1777771;78;21379;-73
2022/10/21 06:57:48;;;;;;;16.52;5.33;;;;;;;2.64;100.00;100365.44;1776055;78;21129;-71
2022/10/21 07:00:17;;;;;;;8.00;5.67;;;;;;;2.74;100.00;100366.36;1800420;78;21314;-70
2022/10/21 07:02:46;;;;;;;13.22;7.78;;;;;;;2.83;99.93;100368.95;1797594;78;21016;-71
2022/10/21 07:05:14;;;;;;;13.25;5.75;;;;;;;2.91;99.69;100367.70;1774322;79;21114;-71
2022/10/21 07:07:42;;;;;;;14.65;7.72;;;;;;;2.97;99.33;100364.75;1781447;80;21552;-70
2022/10/21 07:10:12;;;;;;;6.97;3.85;;;;;;;3.05;98.83;100372.46;1788933;80;21004;-72
2022/10/21 07:12:43;;;;;;;7.60;4.58;;;;;;;3.11;98.42;100377.62;1788988;80;21579;-70
2022/10/21 07:15:10;;;;;;;13.20;4.87;;;;;;;3.18;98.17;100367.81;1797184;78;21219;-72
2022/10/21 07:17:37;;;;;;;10.80;6.58;;;;;;;3.27;97.94;100367.81;1793260;78;21050;-71
2022/10/21 07:20:07;;;;;;;8.90;5.53;;;;;;;3.37;97.81;100364.42;1795755;78;21058;-71
2022/10/21 07:22:34;;;;;;;10.10;6.35;;;;;;;3.49;97.51;100361.43;1788393;78;21342;-72
2022/10/21 07:25:04;;;;;;;10.25;6.67;;;;;;;3.59;97.37;100352.45;1798906;78;21074;-72
2022/10/21 07:27:33;;;;;;;11.97;6.45;;;;;;;3.69;96.83;100354.59;1794742;78;21123;-71
2022/10/21 07:30:00;;;;;;;9.08;5.85;;;;;;;3.80;96.15;100360.58;1769433;80;21032;-71
2022/10/21 07:32:28;;;;;;;15.85;6.40;;;;;;;3.88;95.47;100355.45;1801350;78;21543;-72
2022/10/21 07:34:55;;;;;;;18.80;7.97;;;;;;;3.96;94.99;100355.88;1801646;78;20983;-71
2022/10/21 07:37:22;;;;;;;17.10;8.03;;;;;;;4.07;94.81;100352.00;1813689;78;21022;-71
2022/10/21 07:39:53;;;;;;;7.62;5.22;;;;;;;4.19;93.91;100354.58;1809449;78;21231;-71
2022/10/21 07:42:23;;;;;;;7.72;5.65;;;;;;;4.30;92.82;100359.27;1768111;79;21057;-71
2022/10/21 07:44:58;;;;;;;13.70;6.90;;;;;;;4.38;91.95;100357.97;1827004;77;21033;-73
2022/10/21 07:47:24;;;;;;;7.75;6.30;;;;;;;4.45;91.36;100362.23;1809425;77;21029;-72
2022/10/21 07:49:51;;;;;;;8.43;5.25;;;;;;;4.55;90.98;100360.50;1791613;78;22110;-73
2022/10/21 07:52:20;;;;;;;9.43;4.65;;;;;;;4.61;90.29;100359.17;1798869;78;21105;-71
2022/10/21 07:54:48;;;;;;;6.35;4.10;;;;;;;4.70;89.56;100368.17;1813028;77;21330;-72
2022/10/21 07:57:15;;;;;;;9.90;8.28;;;;;;;4.74;89.10;100371.17;1825264;77;21039;-72
2022/10/21 07:59:42;;;;;;;5.03;4.25;;;;;;;4.80;89.12;100375.85;1816900;77;21031;-71
2022/10/21 08:02:13;;;;;;;6.62;3.87;;;;;;;4.92;88.45;100371.53;1796487;79;21239;-71
2022/10/21 08:04:40;;;;;;;7.72;4.97;;;;;;;5.02;87.85;100377.06;1808390;79;21780;-70
2022/10/21 08:07:07;;;;;;;10.98;5.00;;;;;;;5.09;87.56;100377.47;1811872;77;21483;-71
2022/10/21 08:09:40;;;;;;;6.75;4.40;;;;;;;5.18;87.03;100378.30;1833044;77;21029;-71
2022/10/21 08:12:08;;;;;;;8.88;5.05;;;;;;;5.29;86.59;100385.95;1814647;77;21132;-71
2022/10/21 08:14:36;;;;;;;4.10;3.50;;;;;;;5.39;85.55;100391.51;1833074;77;21017;-71
2022/10/21 08:17:05;;;;;;;6.80;4.30;;;;;;;5.47;84.24;100379.39;1809959;77;20974;-71
2022/10/21 08:19:32;;;;;;;4.17;3.55;;;;;;;5.54;83.80;100378.50;1842075;77;21013;-73
2022/10/21 08:22:01;;;;;;;5.40;3.75;;;;;;;5.64;83.40;100382.30;1802634;77;21004;-73
2022/10/21 08:24:28;;;;;;;3.75;3.35;;;;;;;5.73;83.04;100377.08;1808216;77;21027;-72
2022/10/21 08:26:57;;;;;;;2.75;2.33;;;;;;;5.80;82.51;100374.42;1828400;77;21522;-71
2022/10/21 08:29:24;;;;;;;4.58;2.70;;;;;;;5.88;81.12;100367.52;1824515;77;22041;-73
2022/10/21 08:31:51;;;;;;;7.72;3.17;;;;;;;5.94;80.49;100364.47;1826074;77;21035;-72
2022/10/21 08:34:18;;;;;;;4.87;3.60;;;;;;;6.02;80.02;100367.83;1820007;77;21051;-72
2022/10/21 08:36:44;;;;;;;6.78;2.70;;;;;;;6.09;80.06;100360.02;1810570;77;20979;-72
2022/10/21 08:39:13;;;;;;;5.87;3.98;;;;;;;6.19;79.94;100350.48;1827152;77;21069;-72
2022/10/21 08:42:07;;;;;;;3.00;2.42;;;;;;;6.29;79.95;100349.50;1820156;77;21298;-73
2022/10/21 08:45:01;;;;;;;3.50;1.85;;;;;;;6.38;79.67;100354.59;1820390;77;20975;-73
2022/10/21 08:47:44;;;;;;;8.68;2.50;;;;;;;6.46;79.38;100349.31;1837806;77;21137;-73
2022/10/21 08:50:16;;;;;;;3.25;1.87;;;;;;;6.50;78.49;100345.83;1805230;77;20960;-71
2022/10/21 08:52:54;;;;;;;3.12;2.10;;;;;;;6.55;78.19;100345.36;1801662;78;20906;-72
2022/10/21 08:55:39;;;;;;;2.22;1.60;;;;;;;6.60;77.36;100341.41;1806366;79;21266;-72
2022/10/21 08:58:19;;;;;;;2.75;1.50;;;;;;;6.66;77.00;100339.61;1808994;77;21000;-73
2022/10/21 09:01:02;;;;;;;1.52;1.20;;;;;;;6.72;75.91;100342.14;1817954;77;20988;-73
2022/10/21 09:03:53;;;;;;;3.02;1.17;;;;;;;6.79;75.68;100337.32;1805487;77;21026;-73
2022/10/21 09:06:52;;;;;;;3.05;1.52;;;;;;;6.89;75.08;100339.34;1809107;77;21035;-72
2022/10/21 09:09:27;;;;;;;3.62;1.52;;;;;;;6.98;74.41;100331.48;1817350;77;21256;-73
2022/10/21 09:12:00;;;;;;;2.20;1.62;;;;;;;7.07;74.35;100326.59;1780019;79;21045;-74
2022/10/21 09:15:01;;;;;;;6.03;2.67;;;;;;;7.16;73.80;100323.46;1781276;80;21030;-72
2022/10/21 09:17:49;;;;;;;4.70;2.30;;;;;;;7.28;73.25;100329.33;1799215;79;21035;-72
2022/10/21 09:21:02;;;;;;;2.67;1.70;;;;;;;7.38;72.51;100334.80;1799166;79;21511;-72
2022/10/21 09:23:56;;;;;;;2.33;1.40;;;;;;;7.48;71.50;100334.63;1795077;79;21258;-73
2022/10/21 09:26:42;;;;;;;4.28;2.22;;;;;;;7.52;70.69;100323.35;1761926;79;20996;-73
2022/10/21 09:29:36;;;;;;;5.87;1.80;;;;;;;7.59;70.05;100319.77;1783749;79;21071;-73
2022/10/21 09:32:21;;;;;;;7.35;2.67;;;;;;;7.59;69.89;100314.59;1785587;78;20987;-71
2022/10/21 09:35:08;;;;;;;4.30;1.85;;;;;;;7.61;69.93;100300.33;1788507;79;21026;-72
2022/10/21 09:37:47;;;;;;;5.08;1.70;;;;;;;7.68;70.21;100304.55;1722916;82;21571;-72
2022/10/21 09:40:27;;;;;;;2.58;1.45;;;;;;;7.77;69.82;100295.78;1742860;82;38412;-72
2022/10/21 09:42:57;;;;;;;2.00;1.10;;;;;;;7.82;69.09;100297.39;1715743;82;21014;-72
2022/10/21 09:45:37;;;;;;;1.50;1.07;;;;;;;7.87;67.43;100299.91;1728665;82;21008;-72
2022/10/21 09:48:10;;;;;;;3.55;1.30;;;;;;;7.88;66.14;100302.47;1715884;82;21064;-72
2022/10/21 09:50:38;;;;;;;4.08;1.25;;;;;;;7.90;66.35;100297.27;1745146;82;21337;-72
2022/10/21 09:53:21;;;;;;;2.45;1.17;;;;;;;7.96;66.17;100298.47;1729659;82;21476;-73
2022/10/21 09:55:51;;;;;;;3.00;1.92;;;;;;;7.99;66.07;100297.13;1739177;82;21004;-72
2022/10/21 09:58:27;;;;;;;3.77;1.87;;;;;;;8.05;66.09;100296.13;1718099;82;21535;-72
2022/10/21 10:00:54;;;;;;;3.35;1.90;;;;;;;8.08;65.62;100299.97;1742095;82;20957;-72
2022/10/21 10:03:42;;;;;;;2.00;1.40;;;;;;;8.07;65.50;100299.11;1721754;82;21251;-74
2022/10/21 10:06:09;;;;;;;2.30;1.40;;;;;;;8.09;64.86;100297.80;1736175;82;21043;-72
2022/10/21 10:08:41;;;;;;;1.95;1.30;;;;;;;8.08;64.40;100294.34;1736530;82;20929;-73
2022/10/21 10:11:13;;;;;;;2.08;1.40;;;;;;;8.09;63.93;100290.88;1715449;83;21009;-72
2022/10/21 10:13:51;;;;;;;;;;;;;;;8.10;63.61;100287.84;1734440;82;20980;-74
2022/10/21 10:16:31;;;;;;;3.17;1.10;;;;;;;8.11;63.76;100284.37;1742566;82;21247;-72
2022/10/21 10:19:19;;;;;;;2.42;1.72;;;;;;;8.15;63.85;100276.96;1745050;81;21092;-73
2022/10/21 10:21:50;;;;;;;2.50;1.20;;;;;;;8.18;63.38;100276.47;1733449;81;21031;-72
2022/10/21 10:24:23;;;;;;;2.42;1.30;;;;;;;8.22;62.65;100264.28;1673884;83;21449;-72
2022/10/21 10:26:52;;;;;;;4.30;2.00;;;;;;;8.25;62.38;100263.78;1707951;82;21570;-72
2022/10/21 10:29:29;;;;;;;1.25;1.15;;;;;;;8.29;62.65;100257.66;1745047;81;21208;-72
2022/10/21 10:31:57;;;;;;;1.67;1.47;;;;;;;8.35;62.22;100254.58;1744511;81;21013;-72
2022/10/21 10:34:36;;;;;;;3.27;1.12;;;;;;;8.37;62.20;100252.38;1729623;82;20965;-71
2022/10/21 10:37:17;;;;;;;2.80;1.62;;;;;;;8.40;62.11;100252.28;1744178;81;21429;-72
2022/10/21 10:39:49;;;;;;;2.40;1.30;;;;;;;8.42;61.69;100247.92;1718471;82;20996;-73
2022/10/21 10:42:28;;;;;;;3.40;1.52;;;;;;;8.44;61.67;100243.57;1732839;82;21223;-73
2022/10/21 10:45:00;;;;;;;2.40;1.20;;;;;;;8.45;61.39;100242.69;1743051;82;21020;-73
2022/10/21 10:47:36;;;;;;;1.72;1.10;;;;;;;8.46;61.24;100231.43;1750345;80;21051;-73
2022/10/21 10:50:08;;;;;;;1.75;1.42;;;;;;;8.48;61.47;100245.66;1749887;80;21000;-73
2022/10/21 10:52:35;;;;;;;1.92;1.45;;;;;;;8.48;61.67;100236.59;1762739;80;21613;-73
2022/10/21 10:55:14;;;;;;;5.12;1.90;;;;;;;8.49;61.59;100240.45;1742039;81;21246;-71
2022/10/21 10:57:44;;;;;;;2.08;1.67;;;;;;;8.50;61.47;100230.49;1738445;80;21001;-72
2022/10/21 11:00:21;;;;;;;4.92;1.57;;;;;;;8.52;61.39;100230.02;1730656;80;21439;-72
2022/10/21 11:03:04;;;;;;;3.40;1.57;;;;;;;8.55;61.27;100223.92;1745100;80;20976;-71
2022/10/21 11:05:44;;;;;;;1.80;1.50;;;;;;;8.61;61.04;100232.84;1765884;80;21042;-72
2022/10/21 11:08:29;;;;;;;3.80;1.75;;;;;;;8.60;61.03;100221.61;1756375;80;21032;-72
2022/10/21 11:11:03;;;;;;;3.90;2.15;;;;;;;8.60;60.80;100211.69;1758720;80;20936;-72
2022/10/21 11:13:38;;;;;;;2.83;1.85;;;;;;;8.57;60.97;100204.86;1756454;80;21052;-73
2022/10/21 11:16:49;;;;;;;6.45;2.25;;;;;;;8.56;61.01;100196.66;1741553;81;21076;-72
2022/10/21 11:19:26;;;;;;;6.50;1.80;;;;;;;8.57;60.88;100200.11;1755298;80;20956;-72
2022/10/21 11:22:03;;;;;;;2.92;2.15;;;;;;;8.60;60.94;100196.13;1749392;80;21246;-73
2022/10/21 11:24:55;;;;;;;2.55;1.67;;;;;;;8.62;60.64;100192.62;1769244;80;21064;-73
2022/10/21 11:27:42;;;;;;;1.77;1.62;;;;;;;8.65;60.82;100183.92;1779693;80;21636;-73
2022/10/21 11:30:18;;;;;;;3.30;2.00;;;;;;;8.72;60.53;100188.54;1780450;80;20956;-73
2022/10/21 11:33:15;;;;;;;2.70;1.52;;;;;;;8.74;60.30;100186.33;1780487;80;20926;-72
2022/10/21 11:36:12;;;;;;;2.60;1.92;;;;;;;8.75;60.41;100184.14;1665631;86;21667;-72
2022/10/21 11:38:58;;;;;;;4.92;2.50;;;;;;;8.78;60.19;100182.78;1637684;86;21085;-72
2022/10/21 11:41:35;;;;;;;4.92;1.95;;;;;;;8.79;60.03;100183.16;1634412;85;21055;-71
2022/10/21 11:45:01;;;;;;;3.12;1.90;;;;;;;8.82;60.05;100188.28;1628405;86;21050;-72
2022/10/21 11:47:38;;;;;;;3.42;1.47;;;;;;;8.84;59.75;100183.91;1643742;86;20957;-71
2022/10/21 11:50:36;;;;;;;1.80;1.70;;;;;;;8.87;59.60;100174.77;1642407;85;21115;-73
2022/10/21 11:53:20;;;;;;;3.95;1.90;;;;;;;8.89;59.65;100176.03;1639895;87;20989;-71
2022/10/21 11:56:11;;;;;;;3.52;1.80;;;;;;;8.91;59.13;100182.89;1639958;87;21440;-72